createdAt,value
2017-09-06T00:00:36.144Z,1003.56
2017-09-06T00:01:36.164Z,1003.53
2017-09-06T00:02:36.186Z,1003.55
2017-09-06T00:03:36.209Z,1003.52
2017-09-06T00:04:36.247Z,1003.54
2017-09-06T00:05:36.255Z,1003.5
2017-09-06T00:06:36.278Z,1003.54
2017-09-06T00:07:36.301Z,1003.53
2017-09-06T00:08:36.335Z,1003.52
2017-09-06T00:09:36.344Z,1003.48
2017-09-06T00:10:36.372Z,1003.46
2017-09-06T00:11:36.391Z,1003.48
2017-09-06T00:12:36.414Z,1003.45
2017-09-06T00:13:36.435Z,1003.42
2017-09-06T00:14:36.460Z,1003.43
2017-09-06T00:15:36.481Z,1003.38
2017-09-06T00:16:36.505Z,1003.41
2017-09-06T00:17:36.528Z,1003.42
2017-09-06T00:18:36.550Z,1003.42
2017-09-06T00:19:36.573Z,1003.43
2017-09-06T00:20:36.595Z,1003.39
2017-09-06T00:21:36.617Z,1003.41
2017-09-06T00:22:36.640Z,1003.38
2017-09-06T00:23:36.664Z,1003.35
2017-09-06T00:24:36.683Z,1003.37
2017-09-06T00:25:36.707Z,1003.35
2017-09-06T00:26:36.731Z,1003.32
2017-09-06T00:27:36.751Z,1003.29
2017-09-06T00:28:36.776Z,1003.28
2017-09-06T00:29:36.821Z,1003.26
2017-09-06T00:30:36.819Z,1003.29
2017-09-06T00:31:36.843Z,1003.25
2017-09-06T00:32:36.865Z,1003.26
2017-09-06T00:33:36.888Z,1003.21
2017-09-06T00:34:36.910Z,1003.25
2017-09-06T00:35:36.932Z,1003.21
2017-09-06T00:36:36.953Z,1003.22
2017-09-06T00:37:36.979Z,1003.2
2017-09-06T00:38:37.002Z,1003.24
2017-09-06T00:39:37.023Z,1003.23
2017-09-06T00:40:37.047Z,1003.18
2017-09-06T00:41:37.069Z,1003.19
2017-09-06T00:42:37.090Z,1003.22
2017-09-06T00:43:37.113Z,1003.19
2017-09-06T00:44:37.135Z,1003.14
2017-09-06T00:45:37.159Z,1003.15
2017-09-06T00:46:37.182Z,1003.14
2017-09-06T00:47:37.208Z,1003.12
2017-09-06T00:48:37.229Z,1003.12
2017-09-06T00:49:37.248Z,1003.11
2017-09-06T00:50:37.371Z,1003.12
2017-09-06T00:51:37.351Z,1003.11
2017-09-06T00:52:37.371Z,1003.1
2017-09-06T00:53:37.389Z,1003.06
2017-09-06T00:54:37.403Z,1003.04
2017-09-06T00:55:37.577Z,1003.03
2017-09-06T00:56:37.495Z,1003.05
2017-09-06T00:57:37.550Z,1003.01
2017-09-06T00:58:37.524Z,1003.01
2017-09-06T00:59:37.533Z,1003
2017-09-06T01:00:37.680Z,1002.98
2017-09-06T01:01:37.559Z,1002.93
2017-09-06T01:02:37.579Z,1002.91
2017-09-06T01:03:37.627Z,1002.89
2017-09-06T01:04:37.646Z,1002.91
2017-09-06T01:05:37.706Z,1002.91
2017-09-06T01:06:37.668Z,1002.87
2017-09-06T01:07:37.672Z,1002.88
2017-09-06T01:08:37.764Z,1002.83
2017-09-06T01:09:37.710Z,1002.8
2017-09-06T01:10:37.765Z,1002.76
2017-09-06T01:11:37.740Z,1002.74
2017-09-06T01:12:37.762Z,1002.72
2017-09-06T01:13:37.784Z,1002.71
2017-09-06T01:14:37.807Z,1002.7
2017-09-06T01:15:37.928Z,1002.67
2017-09-06T01:16:37.851Z,1002.65
2017-09-06T01:17:37.873Z,1002.61
2017-09-06T01:18:37.896Z,1002.65
2017-09-06T01:19:37.918Z,1002.64
2017-09-06T01:20:37.940Z,1002.63
2017-09-06T01:21:37.961Z,1002.63
2017-09-06T01:22:37.984Z,1002.6
2017-09-06T01:23:38.007Z,1002.59
2017-09-06T01:24:38.030Z,1002.55
2017-09-06T01:25:38.050Z,1002.53
2017-09-06T01:26:38.074Z,1002.53
2017-09-06T01:27:38.096Z,1002.52
2017-09-06T01:28:38.119Z,1002.52
2017-09-06T01:29:38.140Z,1002.49
2017-09-06T01:30:38.162Z,1002.45
2017-09-06T01:31:38.186Z,1002.48
2017-09-06T01:32:38.207Z,1002.47
2017-09-06T01:33:38.229Z,1002.51
2017-09-06T01:34:38.251Z,1002.49
2017-09-06T01:35:38.274Z,1002.51
2017-09-06T01:36:38.298Z,1002.47
2017-09-06T01:37:38.320Z,1002.43
2017-09-06T01:38:38.341Z,1002.44
2017-09-06T01:39:38.363Z,1002.44
2017-09-06T01:40:38.385Z,1002.45
2017-09-06T01:41:38.407Z,1002.37
2017-09-06T01:42:38.430Z,1002.4
2017-09-06T01:43:38.451Z,1002.36
2017-09-06T01:44:38.475Z,1002.39
2017-09-06T01:45:38.497Z,1002.39
2017-09-06T01:46:38.518Z,1002.38
2017-09-06T01:47:38.540Z,1002.36
2017-09-06T01:48:38.563Z,1002.36
2017-09-06T01:49:38.585Z,1002.4
2017-09-06T01:50:38.623Z,1002.37
2017-09-06T01:51:38.629Z,1002.34
2017-09-06T01:52:38.752Z,1002.37
2017-09-06T01:53:38.675Z,1002.37
2017-09-06T01:54:38.700Z,1002.34
2017-09-06T01:55:38.720Z,1002.38
2017-09-06T01:56:38.740Z,1002.34
2017-09-06T01:57:38.763Z,1002.34
2017-09-06T01:58:38.785Z,1002.29
2017-09-06T01:59:38.807Z,1002.32
2017-09-06T02:00:38.829Z,1002.31
2017-09-06T02:01:38.852Z,1002.29
2017-09-06T02:02:38.876Z,1002.24
2017-09-06T02:03:38.897Z,1002.27
2017-09-06T02:04:38.918Z,1002.25
2017-09-06T02:05:38.943Z,1002.26
2017-09-06T02:06:38.963Z,1002.27
2017-09-06T02:07:38.983Z,1002.27
2017-09-06T02:08:39.006Z,1002.21
2017-09-06T02:09:39.028Z,1002.25
2017-09-06T02:10:39.051Z,1002.2
2017-09-06T02:11:39.074Z,1002.22
2017-09-06T02:12:39.097Z,1002.18
2017-09-06T02:13:39.120Z,1002.16
2017-09-06T02:14:39.141Z,1002.09
2017-09-06T02:15:39.165Z,1002.11
2017-09-06T02:16:39.184Z,1002.08
2017-09-06T02:17:39.207Z,1002.03
2017-09-06T02:18:39.230Z,1002.01
2017-09-06T02:19:39.251Z,1002.01
2017-09-06T02:20:39.278Z,1002
2017-09-06T02:21:39.297Z,1002.02
2017-09-06T02:22:39.317Z,1002
2017-09-06T02:23:39.339Z,1002.01
2017-09-06T02:24:39.363Z,1002.03
2017-09-06T02:25:39.383Z,1002.04
2017-09-06T02:26:39.406Z,1002.02
2017-09-06T02:27:39.429Z,1002.03
2017-09-06T02:28:39.450Z,1001.97
2017-09-06T02:29:39.475Z,1002
2017-09-06T02:30:39.498Z,1002.01
2017-09-06T02:31:39.516Z,1001.95
2017-09-06T02:32:39.542Z,1001.96
2017-09-06T02:33:39.564Z,1001.94
2017-09-06T02:34:39.583Z,1001.93
2017-09-06T02:35:39.605Z,1001.92
2017-09-06T02:36:39.636Z,1001.93
2017-09-06T02:37:39.650Z,1001.9
2017-09-06T02:38:39.673Z,1001.89
2017-09-06T02:39:39.694Z,1001.88
2017-09-06T02:40:39.717Z,1001.96
2017-09-06T02:41:39.739Z,1001.93
2017-09-06T02:42:39.761Z,1001.98
2017-09-06T02:43:39.784Z,1001.94
2017-09-06T02:44:39.805Z,1001.9
2017-09-06T02:45:39.827Z,1001.86
2017-09-06T02:46:39.849Z,1001.85
2017-09-06T02:47:39.873Z,1001.8
2017-09-06T02:48:39.893Z,1001.86
2017-09-06T02:49:39.915Z,1001.87
2017-09-06T02:50:39.940Z,1001.9
2017-09-06T02:51:39.960Z,1001.88
2017-09-06T02:52:39.981Z,1001.86
2017-09-06T02:53:40.008Z,1001.88
2017-09-06T02:54:40.026Z,1001.85
2017-09-06T02:55:40.050Z,1001.82
2017-09-06T02:56:40.072Z,1001.79
2017-09-06T02:57:40.096Z,1001.84
2017-09-06T02:58:40.114Z,1001.81
2017-09-06T02:59:40.138Z,1001.78
2017-09-06T03:00:40.159Z,1001.71
2017-09-06T03:01:40.181Z,1001.72
2017-09-06T03:02:40.203Z,1001.72
2017-09-06T03:03:40.226Z,1001.7
2017-09-06T03:04:40.254Z,1001.64
2017-09-06T03:05:40.270Z,1001.63
2017-09-06T03:06:40.293Z,1001.62
2017-09-06T03:07:40.313Z,1001.58
2017-09-06T03:08:40.335Z,1001.59
2017-09-06T03:09:40.356Z,1001.61
2017-09-06T03:10:40.381Z,1001.6
2017-09-06T03:11:40.403Z,1001.58
2017-09-06T03:12:40.424Z,1001.57
2017-09-06T03:13:40.448Z,1001.61
2017-09-06T03:14:40.469Z,1001.58
2017-09-06T03:15:40.490Z,1001.57
2017-09-06T03:16:40.513Z,1001.58
2017-09-06T03:17:40.534Z,1001.55
2017-09-06T03:18:40.555Z,1001.53
2017-09-06T03:19:40.577Z,1001.54
2017-09-06T03:20:40.601Z,1001.53
2017-09-06T03:21:40.622Z,1001.53
2017-09-06T03:22:40.644Z,1001.57
2017-09-06T03:23:40.666Z,1001.53
2017-09-06T03:24:40.689Z,1001.5
2017-09-06T03:25:40.710Z,1001.48
2017-09-06T03:26:40.733Z,1001.46
2017-09-06T03:27:40.756Z,1001.49
2017-09-06T03:28:40.776Z,1001.42
2017-09-06T03:29:40.799Z,1001.45
2017-09-06T03:30:40.821Z,1001.4
2017-09-06T03:31:40.843Z,1001.43
2017-09-06T03:32:40.906Z,1001.44
2017-09-06T03:33:40.891Z,1001.43
2017-09-06T03:34:40.909Z,1001.43
2017-09-06T03:35:40.931Z,1001.44
2017-09-06T03:36:40.954Z,1001.41
2017-09-06T03:37:40.976Z,1001.41
2017-09-06T03:38:40.999Z,1001.37
2017-09-06T03:39:41.020Z,1001.35
2017-09-06T03:40:41.042Z,1001.31
2017-09-06T03:41:41.065Z,1001.33
2017-09-06T03:42:41.088Z,1001.31
2017-09-06T03:43:41.110Z,1001.32
2017-09-06T03:44:41.131Z,1001.35
2017-09-06T03:45:41.154Z,1001.32
2017-09-06T03:46:41.173Z,1001.32
2017-09-06T03:47:41.196Z,1001.28
2017-09-06T03:48:41.218Z,1001.28
2017-09-06T03:49:41.241Z,1001.25
2017-09-06T03:50:41.264Z,1001.25
2017-09-06T03:51:41.286Z,1001.21
2017-09-06T03:52:41.308Z,1001.22
2017-09-06T03:53:41.329Z,1001.17
2017-09-06T03:54:41.351Z,1001.18
2017-09-06T03:55:41.373Z,1001.17
2017-09-06T03:56:41.395Z,1001.16
2017-09-06T03:57:41.419Z,1001.13
2017-09-06T03:58:41.439Z,1001.13
2017-09-06T03:59:41.461Z,1001.13
2017-09-06T04:00:41.483Z,1001.15
2017-09-06T04:01:41.507Z,1001.15
2017-09-06T04:02:41.529Z,1001.17
2017-09-06T04:03:41.549Z,1001.18
2017-09-06T04:04:41.572Z,1001.19
2017-09-06T04:05:41.594Z,1001.16
2017-09-06T04:06:41.617Z,1001.17
2017-09-06T04:07:41.638Z,1001.11
2017-09-06T04:08:41.661Z,1001.1
2017-09-06T04:09:41.681Z,1001.02
2017-09-06T04:10:41.705Z,1001.02
2017-09-06T04:11:41.727Z,1001.03
2017-09-06T04:12:41.750Z,1000.96
2017-09-06T04:13:41.770Z,1000.99
2017-09-06T04:14:41.793Z,1000.95
2017-09-06T04:15:41.817Z,1000.94
2017-09-06T04:16:41.838Z,1000.95
2017-09-06T04:17:41.859Z,1000.98
2017-09-06T04:18:41.881Z,1000.95
2017-09-06T04:19:41.903Z,1001.01
2017-09-06T04:20:41.925Z,1001.02
2017-09-06T04:21:41.947Z,1000.98
2017-09-06T04:22:41.973Z,1000.96
2017-09-06T04:23:41.992Z,1001.01
2017-09-06T04:24:42.012Z,1000.98
2017-09-06T04:25:42.035Z,1000.93
2017-09-06T04:26:42.056Z,1000.93
2017-09-06T04:27:42.079Z,1000.93
2017-09-06T04:28:42.100Z,1000.87
2017-09-06T04:29:42.124Z,1000.87
2017-09-06T04:30:42.146Z,1000.9
2017-09-06T04:31:42.168Z,1000.92
2017-09-06T04:32:42.188Z,1000.92
2017-09-06T04:33:42.212Z,1000.91
2017-09-06T04:34:42.232Z,1000.86
2017-09-06T04:35:42.254Z,1000.83
2017-09-06T04:36:42.279Z,1000.86
2017-09-06T04:37:42.298Z,1000.81
2017-09-06T04:38:42.321Z,1000.82
2017-09-06T04:39:42.343Z,1000.81
2017-09-06T04:40:42.368Z,1000.81
2017-09-06T04:41:42.386Z,1000.85
2017-09-06T04:42:42.410Z,1000.85
2017-09-06T04:43:42.432Z,1000.82
2017-09-06T04:44:42.453Z,1000.77
2017-09-06T04:45:42.475Z,1000.78
2017-09-06T04:46:42.496Z,1000.73
2017-09-06T04:47:42.520Z,1000.75
2017-09-06T04:48:42.541Z,1000.76
2017-09-06T04:49:42.564Z,1000.77
2017-09-06T04:50:42.586Z,1000.79
2017-09-06T04:51:42.606Z,1000.83
2017-09-06T04:52:42.630Z,1000.83
2017-09-06T04:53:42.652Z,1000.87
2017-09-06T04:54:42.674Z,1000.87
2017-09-06T04:55:42.694Z,1000.82
2017-09-06T04:56:42.719Z,1000.81
2017-09-06T04:57:42.739Z,1000.8
2017-09-06T04:58:42.762Z,1000.76
2017-09-06T04:59:42.819Z,1000.75
2017-09-06T05:00:42.805Z,1000.78
2017-09-06T05:01:42.829Z,1000.75
2017-09-06T05:02:42.849Z,1000.73
2017-09-06T05:03:42.872Z,1000.75
2017-09-06T05:04:42.896Z,1000.74
2017-09-06T05:05:42.950Z,1000.72
2017-09-06T05:06:42.936Z,1000.71
2017-09-06T05:07:42.959Z,1000.71
2017-09-06T05:08:42.982Z,1000.72
2017-09-06T05:09:43.002Z,1000.74
2017-09-06T05:10:43.027Z,1000.75
2017-09-06T05:11:43.047Z,1000.78
2017-09-06T05:12:43.068Z,1000.73
2017-09-06T05:13:43.092Z,1000.74
2017-09-06T05:14:43.114Z,1000.73
2017-09-06T05:15:43.133Z,1000.73
2017-09-06T05:16:43.157Z,1000.69
2017-09-06T05:17:43.178Z,1000.74
2017-09-06T05:18:43.200Z,1000.74
2017-09-06T05:19:43.222Z,1000.77
2017-09-06T05:20:43.245Z,1000.76
2017-09-06T05:21:43.267Z,1000.75
2017-09-06T05:22:43.289Z,1000.74
2017-09-06T05:23:43.313Z,1000.72
2017-09-06T05:24:43.335Z,1000.68
2017-09-06T05:25:43.356Z,1000.63
2017-09-06T05:26:43.376Z,1000.64
2017-09-06T05:27:43.400Z,1000.66
2017-09-06T05:28:43.422Z,1000.68
2017-09-06T05:29:43.442Z,1000.65
2017-09-06T05:30:43.464Z,1000.65
2017-09-06T05:31:43.487Z,1000.66
2017-09-06T05:32:43.513Z,1000.65
2017-09-06T05:33:43.532Z,1000.63
2017-09-06T05:34:43.553Z,1000.67
2017-09-06T05:35:43.575Z,1000.7
2017-09-06T05:36:43.599Z,1000.67
2017-09-06T05:37:43.620Z,1000.68
2017-09-06T05:38:43.642Z,1000.66
2017-09-06T05:39:43.664Z,1000.7
2017-09-06T05:40:43.685Z,1000.72
2017-09-06T05:41:43.711Z,1000.72
2017-09-06T05:42:43.730Z,1000.73
2017-09-06T05:43:43.751Z,1000.74
2017-09-06T05:44:43.773Z,1000.75
2017-09-06T05:45:43.794Z,1000.74
2017-09-06T05:46:43.817Z,1000.73
2017-09-06T05:47:43.839Z,1000.71
2017-09-06T05:48:43.860Z,1000.72
2017-09-06T05:49:43.883Z,1000.75
2017-09-06T05:50:43.904Z,1000.75
2017-09-06T05:51:43.928Z,1000.78
2017-09-06T05:52:43.949Z,1000.8
2017-09-06T05:53:43.980Z,1000.82
2017-09-06T05:54:43.993Z,1000.79
2017-09-06T05:55:44.015Z,1000.8
2017-09-06T05:56:44.037Z,1000.8
2017-09-06T05:57:44.059Z,1000.79
2017-09-06T05:58:44.081Z,1000.78
2017-09-06T05:59:44.103Z,1000.78
2017-09-06T06:00:44.125Z,1000.77
2017-09-06T06:01:44.146Z,1000.8
2017-09-06T06:02:44.172Z,1000.79
2017-09-06T06:03:44.191Z,1000.77
2017-09-06T06:04:44.213Z,1000.82
2017-09-06T06:05:44.236Z,1000.82
2017-09-06T06:06:44.257Z,1000.81
2017-09-06T06:07:44.280Z,1000.8
2017-09-06T06:08:44.343Z,1000.77
2017-09-06T06:09:44.323Z,1000.79
2017-09-06T06:10:44.429Z,1000.79
2017-09-06T06:11:44.368Z,1000.82
2017-09-06T06:12:44.390Z,1000.8
2017-09-06T06:13:44.412Z,1000.84
2017-09-06T06:14:44.432Z,1000.81
2017-09-06T06:15:44.458Z,1000.75
2017-09-06T06:16:44.478Z,1000.79
2017-09-06T06:17:44.499Z,1000.74
2017-09-06T06:18:44.521Z,1000.74
2017-09-06T06:19:44.545Z,1000.74
2017-09-06T06:20:44.569Z,1000.73
2017-09-06T06:21:44.588Z,1000.69
2017-09-06T06:22:44.610Z,1000.68
2017-09-06T06:23:44.634Z,1000.67
2017-09-06T06:24:44.655Z,1000.66
2017-09-06T06:25:44.678Z,1000.7
2017-09-06T06:26:44.700Z,1000.66
2017-09-06T06:27:44.722Z,1000.66
2017-09-06T06:28:44.742Z,1000.68
2017-09-06T06:29:44.766Z,1000.66
2017-09-06T06:30:44.788Z,1000.67
2017-09-06T06:31:44.809Z,1000.66
2017-09-06T06:32:44.832Z,1000.62
2017-09-06T06:33:44.853Z,1000.66
2017-09-06T06:34:44.876Z,1000.63
2017-09-06T06:35:44.899Z,1000.64
2017-09-06T06:36:44.925Z,1000.66
2017-09-06T06:37:44.942Z,1000.64
2017-09-06T06:38:44.965Z,1000.65
2017-09-06T06:39:44.986Z,1000.64
2017-09-06T06:40:45.009Z,1000.62
2017-09-06T06:41:45.031Z,1000.65
2017-09-06T06:42:45.053Z,1000.66
2017-09-06T06:43:45.075Z,1000.68
2017-09-06T06:44:45.098Z,1000.62
2017-09-06T06:45:45.120Z,1000.61
2017-09-06T06:46:45.141Z,1000.61
2017-09-06T06:47:45.164Z,1000.6
2017-09-06T06:48:45.189Z,1000.61
2017-09-06T06:49:45.208Z,1000.62
2017-09-06T06:50:45.231Z,1000.53
2017-09-06T06:51:45.252Z,1000.59
2017-09-06T06:52:45.276Z,1000.58
2017-09-06T06:53:45.299Z,1000.6
2017-09-06T06:54:45.319Z,1000.59
2017-09-06T06:55:45.342Z,1000.59
2017-09-06T06:56:45.365Z,1000.59
2017-09-06T06:57:45.388Z,1000.54
2017-09-06T06:58:45.409Z,1000.54
2017-09-06T06:59:45.433Z,1000.53
2017-09-06T07:00:45.456Z,1000.5
2017-09-06T07:01:45.476Z,1000.52
2017-09-06T07:02:45.500Z,1000.47
2017-09-06T07:03:45.522Z,1000.5
2017-09-06T07:04:45.545Z,1000.48
2017-09-06T07:05:45.566Z,1000.48
2017-09-06T07:06:45.588Z,1000.5
2017-09-06T07:07:45.610Z,1000.46
2017-09-06T07:08:45.633Z,1000.48
2017-09-06T07:09:45.655Z,1000.46
2017-09-06T07:10:45.678Z,1000.44
2017-09-06T07:11:45.701Z,1000.44
2017-09-06T07:12:45.724Z,1000.47
2017-09-06T07:13:45.747Z,1000.43
2017-09-06T07:14:45.769Z,1000.38
2017-09-06T07:15:45.790Z,1000.44
2017-09-06T07:16:45.813Z,1000.37
2017-09-06T07:17:45.837Z,1000.4
2017-09-06T07:18:45.858Z,1000.38
2017-09-06T07:19:45.880Z,1000.38
2017-09-06T07:20:45.903Z,1000.37
2017-09-06T07:21:45.927Z,1000.31
2017-09-06T07:22:45.949Z,1000.35
2017-09-06T07:23:45.972Z,1000.35
2017-09-06T07:24:45.995Z,1000.32
2017-09-06T07:25:46.018Z,1000.29
2017-09-06T07:26:46.038Z,1000.26
2017-09-06T07:27:46.062Z,1000.29
2017-09-06T07:28:46.083Z,1000.28
2017-09-06T07:29:46.106Z,1000.27
2017-09-06T07:30:46.129Z,1000.22
2017-09-06T07:31:46.155Z,1000.27
2017-09-06T07:32:46.174Z,1000.26
2017-09-06T07:33:46.198Z,1000.24
2017-09-06T07:34:46.221Z,1000.24
2017-09-06T07:35:46.245Z,1000.28
2017-09-06T07:36:46.266Z,1000.31
2017-09-06T07:37:46.288Z,1000.34
2017-09-06T07:38:46.310Z,1000.32
2017-09-06T07:39:46.334Z,1000.3
2017-09-06T07:40:46.356Z,1000.37
2017-09-06T07:41:46.378Z,1000.37
2017-09-06T07:42:46.405Z,1000.39
2017-09-06T07:43:46.427Z,1000.39
2017-09-06T07:44:46.448Z,1000.37
2017-09-06T07:45:46.470Z,1000.32
2017-09-06T07:46:46.494Z,1000.32
2017-09-06T07:47:46.524Z,1000.3
2017-09-06T07:48:46.538Z,1000.32
2017-09-06T07:49:46.561Z,1000.27
2017-09-06T07:50:46.583Z,1000.31
2017-09-06T07:51:46.607Z,1000.29
2017-09-06T07:52:46.630Z,1000.28
2017-09-06T07:53:46.655Z,1000.27
2017-09-06T07:54:46.678Z,1000.24
2017-09-06T07:55:46.701Z,1000.27
2017-09-06T07:56:46.826Z,1000.23
2017-09-06T07:57:46.746Z,1000.24
2017-09-06T07:58:46.873Z,1000.26
2017-09-06T07:59:46.898Z,1000.28
2017-09-06T08:00:46.918Z,1000.23
2017-09-06T08:01:46.928Z,1000.22
2017-09-06T08:02:46.927Z,1000.23
2017-09-06T08:03:46.896Z,1000.27
2017-09-06T08:04:46.930Z,1000.22
2017-09-06T08:05:46.931Z,1000.22
2017-09-06T08:06:47.058Z,1000.28
2017-09-06T08:07:47.065Z,1000.21
2017-09-06T08:08:47.001Z,1000.25
2017-09-06T08:09:47.025Z,1000.25
2017-09-06T08:10:47.087Z,1000.24
2017-09-06T08:11:47.090Z,1000.25
2017-09-06T08:12:47.091Z,1000.23
2017-09-06T08:13:47.185Z,1000.27
2017-09-06T08:14:47.203Z,1000.28
2017-09-06T08:15:47.233Z,1000.23
2017-09-06T08:16:47.185Z,1000.27
2017-09-06T08:17:47.209Z,1000.3
2017-09-06T08:18:47.231Z,1000.27
2017-09-06T08:19:47.256Z,1000.26
2017-09-06T08:20:47.279Z,1000.29
2017-09-06T08:21:47.302Z,1000.31
2017-09-06T08:22:47.325Z,1000.29
2017-09-06T08:23:47.350Z,1000.31
2017-09-06T08:24:47.372Z,1000.34
2017-09-06T08:25:47.396Z,1000.31
2017-09-06T08:26:47.418Z,1000.23
2017-09-06T08:27:47.442Z,1000.29
2017-09-06T08:28:47.467Z,1000.25
2017-09-06T08:29:47.489Z,1000.3
2017-09-06T08:30:47.512Z,1000.35
2017-09-06T08:31:47.537Z,1000.29
2017-09-06T08:32:47.561Z,1000.33
2017-09-06T08:33:47.585Z,1000.38
2017-09-06T08:34:47.609Z,1000.35
2017-09-06T08:35:47.632Z,1000.33
2017-09-06T08:36:47.681Z,1000.33
2017-09-06T08:37:47.678Z,1000.33
2017-09-06T08:38:47.702Z,1000.31
2017-09-06T08:39:47.726Z,1000.25
2017-09-06T08:40:47.749Z,1000.27
2017-09-06T08:41:47.772Z,1000.32
2017-09-06T08:42:47.797Z,1000.29
2017-09-06T08:43:47.820Z,1000.27
2017-09-06T08:44:47.844Z,1000.26
2017-09-06T08:45:47.868Z,1000.24
2017-09-06T08:46:47.896Z,1000.23
2017-09-06T08:47:47.914Z,1000.21
2017-09-06T08:48:47.942Z,1000.24
2017-09-06T08:49:47.963Z,1000.27
2017-09-06T08:50:47.987Z,1000.22
2017-09-06T08:51:48.011Z,1000.19
2017-09-06T08:52:48.034Z,1000.18
2017-09-06T08:53:48.059Z,1000.23
2017-09-06T08:54:48.081Z,1000.23
2017-09-06T08:55:48.105Z,1000.22
2017-09-06T08:56:48.131Z,1000.26
2017-09-06T08:57:48.155Z,1000.24
2017-09-06T08:58:48.177Z,1000.24
2017-09-06T08:59:48.204Z,1000.23
2017-09-06T09:00:48.225Z,1000.2
2017-09-06T09:01:48.250Z,1000.22
2017-09-06T09:02:48.272Z,1000.16
2017-09-06T09:03:48.300Z,1000.2
2017-09-06T09:04:48.322Z,1000.19
2017-09-06T09:05:48.347Z,1000.19
2017-09-06T09:06:48.369Z,1000.24
2017-09-06T09:07:48.392Z,1000.22
2017-09-06T09:08:48.418Z,1000.2
2017-09-06T09:09:48.440Z,1000.24
2017-09-06T09:10:48.465Z,1000.21
2017-09-06T09:11:48.491Z,1000.3
2017-09-06T09:12:48.516Z,1000.28
2017-09-06T09:13:48.539Z,1000.25
2017-09-06T09:14:48.563Z,1000.23
2017-09-06T09:15:48.587Z,1000.19
2017-09-06T09:16:48.612Z,1000.22
2017-09-06T09:17:48.636Z,1000.21
2017-09-06T09:18:48.660Z,1000.24
2017-09-06T09:19:48.685Z,1000.21
2017-09-06T09:20:48.708Z,1000.19
2017-09-06T09:21:48.732Z,1000.2
2017-09-06T09:22:48.756Z,1000.15
2017-09-06T09:23:48.781Z,1000.12
2017-09-06T09:24:48.807Z,1000.12
2017-09-06T09:25:48.832Z,1000.09
2017-09-06T09:26:48.854Z,1000.12
2017-09-06T09:27:48.878Z,1000.15
2017-09-06T09:28:48.903Z,1000.11
2017-09-06T09:29:48.927Z,1000.09
2017-09-06T09:30:48.956Z,1000.07
2017-09-06T09:31:48.976Z,1000.09
2017-09-06T09:32:49.001Z,1000.04
2017-09-06T09:33:49.027Z,1000.01
2017-09-06T09:34:49.049Z,1000.01
2017-09-06T09:35:49.073Z,999.99
2017-09-06T09:36:49.099Z,999.95
2017-09-06T09:37:49.124Z,999.97
2017-09-06T09:38:49.146Z,999.93
2017-09-06T09:39:49.173Z,999.94
2017-09-06T09:40:49.197Z,999.92
2017-09-06T09:41:49.222Z,999.86
2017-09-06T09:42:49.245Z,999.84
2017-09-06T09:43:49.271Z,999.82
2017-09-06T09:44:49.294Z,999.74
2017-09-06T09:45:49.320Z,999.83
2017-09-06T09:46:49.345Z,999.78
2017-09-06T09:47:49.369Z,999.75
2017-09-06T09:48:49.392Z,999.74
2017-09-06T09:49:49.417Z,999.79
2017-09-06T09:50:49.442Z,999.73
2017-09-06T09:51:49.465Z,999.73
2017-09-06T09:52:49.492Z,999.73
2017-09-06T09:53:49.516Z,999.7
2017-09-06T09:54:49.541Z,999.68
2017-09-06T09:55:49.566Z,999.58
2017-09-06T09:56:49.592Z,999.6
2017-09-06T09:57:49.616Z,999.64
2017-09-06T09:58:49.639Z,999.51
2017-09-06T09:59:49.663Z,999.53
2017-09-06T10:00:49.687Z,999.57
2017-09-06T10:01:49.921Z,999.53
2017-09-06T10:02:49.738Z,999.5
2017-09-06T10:03:49.762Z,999.58
2017-09-06T10:04:49.787Z,999.5
2017-09-06T10:05:49.813Z,999.51
2017-09-06T10:06:49.838Z,999.48
2017-09-06T10:07:49.863Z,999.47
2017-09-06T10:08:49.887Z,999.41
2017-09-06T10:09:49.913Z,999.44
2017-09-06T10:10:49.938Z,999.41
2017-09-06T10:11:49.961Z,999.45
2017-09-06T10:12:49.985Z,999.39
2017-09-06T10:13:50.012Z,999.47
2017-09-06T10:14:50.035Z,999.43
2017-09-06T10:15:50.060Z,999.45
2017-09-06T10:16:50.086Z,999.4
2017-09-06T10:17:50.114Z,999.38
2017-09-06T10:18:50.138Z,999.41
2017-09-06T10:19:50.163Z,999.32
2017-09-06T10:20:50.187Z,999.37
2017-09-06T10:21:50.213Z,999.36
2017-09-06T10:22:50.238Z,999.37
2017-09-06T10:23:50.262Z,999.29
2017-09-06T10:24:50.288Z,999.3
2017-09-06T10:25:50.314Z,999.36
2017-09-06T10:26:50.339Z,999.36
2017-09-06T10:27:50.364Z,999.32
2017-09-06T10:28:50.390Z,999.33
2017-09-06T10:29:50.413Z,999.38
2017-09-06T10:30:50.441Z,999.35
2017-09-06T10:31:50.463Z,999.34
2017-09-06T10:32:50.490Z,999.35
2017-09-06T10:33:50.514Z,999.28
2017-09-06T10:34:50.543Z,999.34
2017-09-06T10:35:50.566Z,999.28
2017-09-06T10:36:50.592Z,999.29
2017-09-06T10:37:50.616Z,999.22
2017-09-06T10:38:50.641Z,999.26
2017-09-06T10:39:50.667Z,999.23
2017-09-06T10:40:50.693Z,999.2
2017-09-06T10:41:50.718Z,999.19
2017-09-06T10:42:50.745Z,999.2
2017-09-06T10:43:50.770Z,999.22
2017-09-06T10:44:50.795Z,999.17
2017-09-06T10:45:50.820Z,999.15
2017-09-06T10:46:50.846Z,999.19
2017-09-06T10:47:50.871Z,999.18
2017-09-06T10:48:50.898Z,999.15
2017-09-06T10:49:50.924Z,999.11
2017-09-06T10:50:50.950Z,999.1
2017-09-06T10:51:50.974Z,999.1
2017-09-06T10:52:51.006Z,999.15
2017-09-06T10:53:51.026Z,999.02
2017-09-06T10:54:51.053Z,999.1
2017-09-06T10:55:51.077Z,999.08
2017-09-06T10:56:51.102Z,999.09
2017-09-06T10:57:51.129Z,999.07
2017-09-06T10:58:51.155Z,999.09
2017-09-06T10:59:51.181Z,999.02
2017-09-06T11:00:51.207Z,999.04
2017-09-06T11:01:51.232Z,999.06
2017-09-06T11:02:51.256Z,999.07
2017-09-06T11:03:51.285Z,999.06
2017-09-06T11:04:51.309Z,999.04
2017-09-06T11:05:51.337Z,999.01
2017-09-06T11:06:51.360Z,999.06
2017-09-06T11:07:51.387Z,999.01
2017-09-06T11:08:51.414Z,999.03
2017-09-06T11:09:51.442Z,999.01
2017-09-06T11:10:51.465Z,999
2017-09-06T11:11:51.490Z,999.03
2017-09-06T11:12:51.517Z,999.05
2017-09-06T11:13:51.544Z,999.06
2017-09-06T11:14:51.570Z,998.98
2017-09-06T11:15:51.595Z,999.05
2017-09-06T11:16:51.622Z,999.02
2017-09-06T11:17:51.647Z,998.99
2017-09-06T11:18:51.672Z,999.01
2017-09-06T11:19:51.700Z,998.97
2017-09-06T11:20:51.727Z,998.92
2017-09-06T11:21:51.752Z,999.04
2017-09-06T11:22:51.778Z,998.98
2017-09-06T11:23:51.805Z,999.03
2017-09-06T11:24:51.831Z,998.93
2017-09-06T11:25:51.857Z,998.94
2017-09-06T11:26:51.884Z,998.97
2017-09-06T11:27:51.911Z,998.98
2017-09-06T11:28:51.934Z,998.96
2017-09-06T11:29:51.961Z,998.93
2017-09-06T11:30:51.990Z,998.93
2017-09-06T11:31:52.018Z,998.93
2017-09-06T11:32:52.041Z,998.91
2017-09-06T11:33:52.068Z,998.94
2017-09-06T11:34:52.092Z,998.84
2017-09-06T11:35:52.118Z,998.84
2017-09-06T11:36:52.146Z,998.74
2017-09-06T11:37:52.172Z,998.82
2017-09-06T11:38:52.200Z,998.82
2017-09-06T11:39:52.225Z,998.78
2017-09-06T11:40:52.251Z,998.9
2017-09-06T11:41:52.279Z,998.9
2017-09-06T11:42:52.305Z,998.89
2017-09-06T11:43:52.332Z,998.92
2017-09-06T11:44:52.359Z,998.9
2017-09-06T11:45:52.386Z,998.98
2017-09-06T11:46:52.411Z,998.92
2017-09-06T11:47:52.438Z,998.91
2017-09-06T11:48:52.464Z,998.89
2017-09-06T11:49:52.492Z,998.9
2017-09-06T11:50:52.519Z,998.88
2017-09-06T11:51:52.545Z,998.87
2017-09-06T11:52:52.572Z,998.85
2017-09-06T11:53:52.597Z,998.89
2017-09-06T11:54:52.623Z,998.89
2017-09-06T11:55:52.653Z,998.86
2017-09-06T11:56:52.680Z,998.78
2017-09-06T11:57:52.703Z,998.83
2017-09-06T11:58:52.731Z,998.9
2017-09-06T11:59:52.758Z,998.84
2017-09-06T12:00:52.785Z,998.76
2017-09-06T12:01:52.810Z,998.77
2017-09-06T12:02:52.838Z,998.93
2017-09-06T12:03:52.864Z,998.87
2017-09-06T12:04:52.895Z,998.98
2017-09-06T12:05:52.917Z,998.96
2017-09-06T12:06:52.943Z,998.97
2017-09-06T12:07:52.970Z,999
2017-09-06T12:08:52.997Z,999.01
2017-09-06T12:09:53.024Z,999.03
2017-09-06T12:10:53.051Z,998.96
2017-09-06T12:11:53.078Z,998.93
2017-09-06T12:12:53.104Z,998.96